Time;durP1;ratioP1;P1;durP2;ratioP2;P2;SDS_P1;SDS_P2;PMS_P1;PMS_P2;Temp;Humidity;BMP_temperature;BMP_pressure;BME280_temperature;BME280_humidity;BME280_pressure;Samples;Min_cycle;Max_cycle;Signal;HPM_P1;HPM_P2
2021/11/06 00:00:39;;;;;;;;;28.75;28.50;;;;;-147.17;100.00;50105.81;5067427;28;51135;-62
2021/11/06 00:03:08;;;;;;;;;26.50;24.25;;;;;-147.17;100.00;50127.47;5063271;28;50865;-62
2021/11/06 00:05:34;;;;;;;;;23.75;22.50;;;;;-147.17;100.00;50111.72;5073669;28;52043;-61
2021/11/06 00:08:00;;;;;;;;;21.50;19.50;;;;;-147.17;100.00;50105.81;5072996;28;50998;-62
2021/11/06 00:10:26;;;;;;;;;20.00;19.00;;;;;-147.17;100.00;50099.91;5062396;28;50970;-63
2021/11/06 00:12:52;;;;;;;;;20.75;19.75;;;;;-147.17;100.00;50099.91;5070744;28;50967;-62
2021/11/06 00:15:18;;;;;;;;;18.25;17.50;;;;;-147.17;100.00;50103.84;5073354;28;51104;-62
2021/11/06 00:17:44;;;;;;;;;21.75;19.50;;;;;-147.17;100.00;50115.66;5072872;28;50946;-63
2021/11/06 00:20:11;;;;;;;;;22.50;20.75;;;;;-147.17;100.00;50127.47;5073213;28;50907;-61
2021/11/06 00:22:37;;;;;;;;;21.50;19.50;;;;;-147.17;100.00;50113.69;5073531;28;51277;-62
2021/11/06 00:25:05;;;;;;;;;21.00;19.50;;;;;-147.17;100.00;50099.91;5073334;28;51144;-62
2021/11/06 00:27:31;;;;;;;;;19.75;17.00;;;;;-147.17;100.00;50121.56;5072845;28;51251;-65
2021/11/06 00:29:56;;;;;;;;;21.50;20.25;;;;;-147.17;100.00;50131.41;5074004;28;51143;-62
2021/11/06 00:32:22;;;;;;;;;22.25;19.50;;;;;-147.17;100.00;50092.03;5073353;28;51446;-62
2021/11/06 00:34:47;;;;;;;;;24.00;23.25;;;;;-147.17;100.00;50153.06;5073119;28;51300;-62
2021/11/06 00:37:13;;;;;;;;;30.75;28.00;;;;;-147.17;100.00;50097.94;5072669;28;51049;-62
2021/11/06 00:39:38;;;;;;;;;21.75;20.75;;;;;-147.17;100.00;50123.53;5072995;28;51200;-62
2021/11/06 00:42:04;;;;;;;;;57.75;46.25;;;;;-147.17;100.00;50145.19;5073446;28;51148;-62
2021/11/06 00:44:30;;;;;;;;;26.00;23.25;;;;;-147.17;100.00;50141.25;5054718;28;51795;-62
2021/11/06 00:46:55;;;;;;;;;20.25;20.00;;;;;-147.17;100.00;50125.50;5072349;28;51141;-64
2021/11/06 00:49:21;;;;;;;;;23.75;23.00;;;;;-147.17;100.00;50109.75;5059550;28;51257;-62
2021/11/06 00:51:46;;;;;;;;;22.25;22.25;;;;;-147.17;100.00;50127.47;5073600;28;51168;-61
2021/11/06 00:54:12;;;;;;;;;20.50;19.00;;;;;-147.17;100.00;50107.78;5072524;28;52268;-63
2021/11/06 00:56:37;;;;;;;;;23.75;22.00;;;;;-147.17;100.00;50139.28;5072212;28;51081;-61
2021/11/06 00:59:03;;;;;;;;;28.00;25.00;;;;;-147.17;100.00;50092.03;5073027;28;51105;-61
2021/11/06 01:01:28;;;;;;;;;24.25;23.75;;;;;-147.17;100.00;50086.16;5068716;28;50899;-61
2021/11/06 01:03:54;;;;;;;;;24.00;21.25;;;;;-147.17;100.00;50123.53;5066978;28;51892;-61
2021/11/06 01:06:19;;;;;;;;;31.75;28.75;;;;;-147.17;100.00;50113.69;5072955;28;51091;-62
2021/11/06 01:08:45;;;;;;;;;30.75;26.50;;;;;-147.17;100.00;50103.84;5073193;28;51204;-61
2021/11/06 01:11:11;;;;;;;;;20.25;19.75;;;;;-147.17;100.00;50103.84;5073644;28;51490;-62
2021/11/06 01:13:37;;;;;;;;;27.75;24.50;;;;;-147.17;100.00;50129.44;5073102;28;50929;-62
2021/11/06 01:16:02;;;;;;;;;19.75;19.25;;;;;-147.17;100.00;50107.78;5072764;28;50887;-62
2021/11/06 01:18:28;;;;;;;;;24.00;21.25;;;;;-147.17;100.00;50115.66;5059650;28;51111;-61
2021/11/06 01:20:53;;;;;;;;;24.25;21.75;;;;;-147.17;100.00;50111.72;5059146;28;50895;-61
2021/11/06 01:23:19;;;;;;;;;23.25;20.75;;;;;-147.17;100.00;50099.91;5072508;28;51106;-61
2021/11/06 01:25:44;;;;;;;;;25.00;24.25;;;;;-147.17;100.00;50147.16;5063125;28;51143;-60
2021/11/06 01:28:09;;;;;;;;;24.00;20.25;;;;;-147.17;100.00;50084.19;5071577;28;51617;-61
2021/11/06 01:30:35;;;;;;;;;28.00;27.75;;;;;-147.17;100.00;50095.97;5072400;28;51000;-62
2021/11/06 01:33:00;;;;;;;;;26.25;25.00;;;;;-147.17;100.00;50125.50;5071554;28;52064;-62
2021/11/06 01:35:26;;;;;;;;;23.25;21.00;;;;;-147.17;100.00;50095.97;5072807;28;50928;-63
2021/11/06 01:37:51;;;;;;;;;21.75;20.50;;;;;-147.17;100.00;50113.69;5058800;28;51355;-62
2021/11/06 01:40:20;;;;;;;;;20.00;20.00;;;;;-147.17;100.00;50115.66;5072657;28;51146;-62
2021/11/06 01:42:47;;;;;;;;;23.00;22.75;;;;;-147.17;100.00;50109.75;5072145;28;52949;-62
2021/11/06 01:45:15;;;;;;;;;20.75;19.50;;;;;-147.17;100.00;50099.91;5072552;28;51013;-62
2021/11/06 01:47:41;;;;;;;;;21.50;20.00;;;;;-147.17;100.00;50084.19;5071705;28;50910;-60
2021/11/06 01:50:07;;;;;;;;;27.25;24.25;;;;;-147.17;100.00;50111.72;5071925;28;50897;-63
2021/11/06 01:52:32;;;;;;;;;18.00;17.75;;;;;-147.17;100.00;50115.66;5072264;28;51294;-62
2021/11/06 01:54:57;;;;;;;;;19.00;18.75;;;;;-147.17;100.00;50088.13;5072105;28;51152;-62
2021/11/06 01:57:23;;;;;;;;;15.00;15.00;;;;;-147.17;100.00;50090.09;5072241;28;51206;-61
2021/11/06 01:59:50;;;;;;;;;19.25;18.75;;;;;-147.17;100.00;50123.53;5071586;28;50996;-61
2021/11/06 02:02:16;;;;;;;;;18.00;16.25;;;;;-147.17;100.00;50127.47;5064031;28;51832;-61
2021/11/06 02:04:42;;;;;;;;;28.25;25.50;;;;;-147.17;100.00;50143.22;5071838;28;50937;-61
2021/11/06 02:07:07;;;;;;;;;25.25;23.75;;;;;-147.17;100.00;50141.25;5072210;28;51094;-61
2021/11/06 02:09:33;;;;;;;;;26.50;23.75;;;;;-147.17;100.00;50115.66;5071423;28;51232;-61
2021/11/06 02:11:58;;;;;;;;;18.75;18.75;;;;;-147.17;100.00;50125.50;5071927;28;51133;-62
2021/11/06 02:14:24;;;;;;;;;16.50;16.00;;;;;-147.17;100.00;50092.03;5071982;28;51039;-62
2021/11/06 02:16:52;;;;;;;;;24.50;21.25;;;;;-147.17;100.00;50137.31;5064088;28;51067;-61
2021/11/06 02:19:17;;;;;;;;;23.00;22.25;;;;;-147.17;100.00;50117.63;5068077;28;51003;-62
2021/11/06 02:21:43;;;;;;;;;22.00;22.00;;;;;-147.17;100.00;50141.25;5072401;28;51009;-62
2021/11/06 02:24:08;;;;;;;;;22.00;20.75;;;;;-147.17;100.00;50095.97;5071773;28;51132;-61
2021/11/06 02:26:34;;;;;;;;;23.25;21.25;;;;;-147.17;100.00;50103.84;5053425;28;51175;-62
2021/11/06 02:29:03;;;;;;;;;25.25;21.50;;;;;-147.17;100.00;50123.53;5072150;28;51005;-61
2021/11/06 02:31:29;;;;;;;;;23.50;21.00;;;;;-147.17;100.00;50113.69;5072170;28;52046;-61
2021/11/06 02:33:54;;;;;;;;;23.25;22.50;;;;;-147.17;100.00;50101.88;5071844;28;50925;-62
2021/11/06 02:36:21;;;;;;;;;26.75;23.75;;;;;-147.17;100.00;50103.84;5052972;28;51069;-61
2021/11/06 02:38:47;;;;;;;;;42.00;37.25;;;;;-147.17;100.00;50097.94;5072076;28;51011;-62
2021/11/06 02:41:13;;;;;;;;;23.75;23.75;;;;;-147.17;100.00;50103.84;5071644;28;52713;-61
2021/11/06 02:43:38;;;;;;;;;20.25;19.25;;;;;-147.17;100.00;50099.91;5074443;28;50900;-62
2021/11/06 02:46:04;;;;;;;;;20.00;19.50;;;;;-147.17;100.00;50084.19;5075253;28;51019;-61
2021/11/06 02:48:29;;;;;;;;;18.75;18.75;;;;;-147.17;100.00;50133.38;5074776;28;51119;-62
2021/11/06 02:50:55;;;;;;;;;21.50;19.50;;;;;-147.17;100.00;50111.72;5075135;28;52323;-61
2021/11/06 02:53:20;;;;;;;;;23.25;20.00;;;;;-147.17;100.00;50113.69;5075096;28;51069;-62
2021/11/06 02:55:47;;;;;;;;;22.00;19.50;;;;;-147.17;100.00;50099.91;5074897;28;50975;-62
2021/11/06 02:58:13;;;;;;;;;21.50;19.25;;;;;-147.17;100.00;50094.00;5063665;28;52623;-61
2021/11/06 03:00:38;;;;;;;;;18.00;18.00;;;;;-147.17;100.00;50103.84;5057806;28;52017;-61
2021/11/06 03:03:04;;;;;;;;;18.50;17.75;;;;;-147.17;100.00;50086.16;5066962;28;50984;-62
2021/11/06 03:05:29;;;;;;;;;20.25;20.25;;;;;-147.17;100.00;50078.28;5073948;28;50959;-62
2021/11/06 03:07:55;;;;;;;;;20.50;19.25;;;;;-147.17;100.00;50095.97;5063943;28;51443;-60
2021/11/06 03:10:20;;;;;;;;;19.25;18.50;;;;;-147.17;100.00;50095.97;5074487;28;51380;-61
2021/11/06 03:12:48;;;;;;;;;19.25;18.75;;;;;-147.17;100.00;50101.88;5075207;28;50994;-62
2021/11/06 03:15:14;;;;;;;;;22.25;18.50;;;;;-147.17;100.00;50115.66;5075214;28;51011;-62
2021/11/06 03:17:40;;;;;;;;;17.00;16.50;;;;;-147.17;100.00;50119.59;5068950;28;51197;-62
2021/11/06 03:20:06;;;;;;;;;18.50;17.00;;;;;-147.17;100.00;50123.53;5066121;28;51836;-61
2021/11/06 03:22:32;;;;;;;;;15.75;14.50;;;;;-147.17;100.00;50088.13;5074254;28;50925;-62
2021/11/06 03:24:58;;;;;;;;;17.00;17.00;;;;;-147.17;100.00;50103.84;5053580;28;51250;-62
2021/11/06 03:27:24;;;;;;;;;20.75;18.50;;;;;-147.17;100.00;50082.22;5071687;28;51178;-62
2021/11/06 03:29:50;;;;;;;;;21.00;17.50;;;;;-147.17;100.00;50103.84;5062898;28;51877;-60
2021/11/06 03:32:16;;;;;;;;;13.75;12.75;;;;;-147.17;100.00;50105.81;5075380;28;50852;-62
2021/11/06 03:34:41;;;;;;;;;14.25;13.75;;;;;-147.17;100.00;50092.03;5075060;28;51278;-62
2021/11/06 03:37:07;;;;;;;;;10.50;10.50;;;;;-147.17;100.00;50101.88;5074133;28;51132;-62
2021/11/06 03:39:34;;;;;;;;;16.75;14.75;;;;;-147.17;100.00;50131.41;5062421;28;51128;-62
2021/11/06 03:41:59;;;;;;;;;17.50;14.00;;;;;-147.17;100.00;50092.03;5074589;28;51030;-61
2021/11/06 03:44:25;;;;;;;;;17.25;17.00;;;;;-147.17;100.00;50103.84;5056220;28;51076;-61
2021/11/06 03:46:50;;;;;;;;;14.25;14.25;;;;;-147.17;100.00;50107.78;5074115;28;51212;-61
2021/11/06 03:49:16;;;;;;;;;15.25;14.75;;;;;-147.17;100.00;50088.13;5074221;28;52249;-62
2021/11/06 03:51:41;;;;;;;;;15.50;15.50;;;;;-147.17;100.00;50092.03;5074763;28;50954;-62
2021/11/06 03:54:08;;;;;;;;;19.00;17.25;;;;;-147.17;100.00;50088.13;5073156;28;51049;-62
2021/11/06 03:56:34;;;;;;;;;19.00;13.75;;;;;-147.17;100.00;50072.38;5073581;28;51316;-62
2021/11/06 03:59:00;;;;;;;;;17.75;15.75;;;;;-147.17;100.00;50080.25;5073930;28;51326;-62
2021/11/06 04:01:25;;;;;;;;;14.00;13.00;;;;;-147.17;100.00;50099.91;5070104;28;50948;-62
2021/11/06 04:03:51;;;;;;;;;16.00;16.00;;;;;-147.17;100.00;50064.50;5070606;28;51138;-62
2021/11/06 04:06:16;;;;;;;;;19.00;16.00;;;;;-147.17;100.00;50092.03;5054719;28;51244;-61
2021/11/06 04:08:42;;;;;;;;;16.50;16.25;;;;;-147.17;100.00;50111.72;5073062;28;51168;-61
2021/11/06 04:11:08;;;;;;;;;15.25;15.25;;;;;-147.17;100.00;50072.38;5074058;28;50982;-61
2021/11/06 04:13:34;;;;;;;;;16.00;14.50;;;;;-147.17;100.00;50084.19;5074217;28;51011;-62
2021/11/06 04:16:00;;;;;;;;;16.25;14.50;;;;;-147.17;100.00;50088.13;5073674;28;51320;-61
2021/11/06 04:18:25;;;;;;;;;16.00;14.75;;;;;-147.17;100.00;50103.84;5073958;28;51058;-62
2021/11/06 04:20:51;;;;;;;;;21.75;18.25;;;;;-147.17;100.00;50095.97;5061828;28;52233;-62
2021/11/06 04:23:16;;;;;;;;;17.50;17.50;;;;;-147.17;100.00;50072.38;5072976;28;51121;-62
2021/11/06 04:25:42;;;;;;;;;18.00;16.50;;;;;-147.17;100.00;50095.97;5073230;28;51384;-62
2021/11/06 04:28:07;;;;;;;;;14.00;13.25;;;;;-147.17;100.00;50099.91;5055614;28;51841;-61
2021/11/06 04:30:33;;;;;;;;;15.25;15.25;;;;;-147.17;100.00;50103.84;5073595;28;50944;-63
2021/11/06 04:32:58;;;;;;;;;19.50;17.25;;;;;-147.17;100.00;50076.31;5073662;28;50913;-62
2021/11/06 04:35:23;;;;;;;;;17.75;15.75;;;;;-147.17;100.00;50095.97;5074143;28;50873;-62
2021/11/06 04:37:49;;;;;;;;;14.25;14.25;;;;;-147.17;100.00;50099.91;5072908;28;52165;-62
2021/11/06 04:40:15;;;;;;;;;14.00;14.00;;;;;-147.17;100.00;50076.31;5074131;28;50952;-62
2021/11/06 04:42:42;;;;;;;;;14.50;13.00;;;;;-147.17;100.00;50119.59;5074460;28;51000;-62
2021/11/06 04:45:09;;;;;;;;;15.75;15.75;;;;;-147.17;100.00;50101.88;5074198;28;50995;-62
2021/11/06 04:47:35;;;;;;;;;18.00;17.75;;;;;-147.17;100.00;50101.88;5053973;28;51057;-60
2021/11/06 04:50:03;;;;;;;;;12.75;12.75;;;;;-147.17;100.00;50088.13;5073404;28;50986;-62
2021/11/06 04:52:29;;;;;;;;;10.00;9.50;;;;;-147.17;100.00;50094.00;5073494;28;51066;-61
2021/11/06 04:54:54;;;;;;;;;20.00;18.00;;;;;-147.17;100.00;50090.09;5073063;28;51443;-61
2021/11/06 04:57:20;;;;;;;;;14.25;13.75;;;;;-147.17;100.00;50060.56;5072406;28;51935;-61
2021/11/06 04:59:45;;;;;;;;;17.00;14.50;;;;;-147.17;100.00;50092.03;5073665;28;50972;-62
2021/11/06 05:02:11;;;;;;;;;14.50;13.75;;;;;-147.17;100.00;50080.25;5064285;28;50888;-61
2021/11/06 05:04:39;;;;;;;;;13.75;13.75;;;;;-147.17;100.00;50092.03;5073957;28;50821;-62
2021/11/06 05:07:05;;;;;;;;;9.25;9.25;;;;;-147.17;100.00;50097.94;5072354;28;51498;-61
2021/11/06 05:09:30;;;;;;;;;14.00;11.00;;;;;-147.17;100.00;50149.13;5072782;28;51048;-61
2021/11/06 05:11:56;;;;;;;;;10.75;10.75;;;;;-147.17;100.00;50131.41;5073511;28;51295;-60
2021/11/06 05:14:21;;;;;;;;;11.50;11.25;;;;;-147.17;100.00;50147.16;5073514;28;51066;-61
2021/11/06 05:16:49;;;;;;;;;14.25;13.00;;;;;-147.17;100.00;50137.31;5072477;28;52182;-62
2021/11/06 05:19:15;;;;;;;;;11.00;11.00;;;;;-147.17;100.00;50119.59;5072994;28;50913;-61
2021/11/06 05:21:42;;;;;;;;;13.00;13.00;;;;;-147.17;100.00;50151.09;5054821;28;51066;-61
2021/11/06 05:24:08;;;;;;;;;13.75;12.50;;;;;-147.17;100.00;50147.16;5071763;28;50988;-62
2021/11/06 05:26:34;;;;;;;;;14.00;13.50;;;;;-147.17;100.00;50131.41;5064652;28;53033;-61
2021/11/06 05:29:01;;;;;;;;;12.00;12.00;;;;;-147.17;100.00;50123.53;5072582;28;51147;-61
2021/11/06 05:31:27;;;;;;;;;13.00;13.00;;;;;-147.17;100.00;50133.38;5072742;28;51150;-62
2021/11/06 05:33:52;;;;;;;;;13.50;12.50;;;;;-147.17;100.00;50151.09;5072876;28;51053;-61
2021/11/06 05:36:17;;;;;;;;;13.00;12.50;;;;;-147.17;100.00;50129.44;5058804;28;51691;-61
2021/11/06 05:38:43;;;;;;;;;14.00;13.00;;;;;-147.17;100.00;50151.09;5071958;28;51065;-62
2021/11/06 05:41:08;;;;;;;;;17.00;13.00;;;;;-147.17;100.00;50143.22;5055522;28;51057;-65
2021/11/06 05:43:33;;;;;;;;;13.00;13.00;;;;;-147.17;100.00;50119.59;5072959;28;51243;-61
2021/11/06 05:45:59;;;;;;;;;13.25;13.00;;;;;-147.17;100.00;50119.59;5072511;28;52404;-60
2021/11/06 05:48:24;;;;;;;;;13.50;13.50;;;;;-147.17;100.00;50103.84;5072996;28;50947;-61
2021/11/06 05:50:50;;;;;;;;;13.50;13.50;;;;;-147.17;100.00;50123.53;5072392;28;51016;-62
2021/11/06 05:53:15;;;;;;;;;13.75;13.50;;;;;-147.17;100.00;50117.63;5074001;28;51003;-61
2021/11/06 05:55:41;;;;;;;;;15.25;14.75;;;;;-147.17;100.00;50145.19;5072780;28;51954;-62
2021/11/06 05:58:07;;;;;;;;;12.50;12.50;;;;;-147.17;100.00;50147.16;5072681;28;51033;-62
2021/11/06 06:00:32;;;;;;;;;14.75;13.75;;;;;-147.17;100.00;50139.28;5053986;28;51192;-62
2021/11/06 06:02:58;;;;;;;;;14.00;14.00;;;;;-147.17;100.00;50139.28;5054581;28;50966;-62
2021/11/06 06:05:24;;;;;;;;;13.75;12.50;;;;;-147.17;100.00;50143.22;5072335;28;51407;-62
2021/11/06 06:07:50;;;;;;;;;12.00;12.00;;;;;-147.17;100.00;50147.16;5072696;28;51072;-62
2021/11/06 06:10:16;;;;;;;;;17.00;16.00;;;;;-147.17;100.00;50147.16;5071538;28;51726;-62
2021/11/06 06:12:44;;;;;;;;;12.00;12.00;;;;;-147.17;100.00;50160.94;5058974;28;50912;-62
2021/11/06 06:15:10;;;;;;;;;15.25;14.00;;;;;-147.17;100.00;50149.13;5072164;28;52049;-63
2021/11/06 06:17:37;;;;;;;;;19.25;18.25;;;;;-147.17;100.00;50135.34;5072995;28;50911;-62
2021/11/06 06:20:04;;;;;;;;;16.75;16.50;;;;;-147.17;100.00;50151.09;5075472;28;50987;-62
2021/11/06 06:22:30;;;;;;;;;18.75;18.00;;;;;-147.17;100.00;50125.50;5044214;28;51198;-61
2021/11/06 06:24:55;;;;;;;;;19.50;18.25;;;;;-147.17;100.00;50131.41;5075410;28;51942;-61
2021/11/06 06:27:21;;;;;;;;;17.25;15.50;;;;;-147.17;100.00;50151.09;5075736;28;51053;-61
2021/11/06 06:29:46;;;;;;;;;22.50;21.25;;;;;-147.17;100.00;50143.22;5075301;28;51565;-61
2021/11/06 06:32:11;;;;;;;;;18.00;18.00;;;;;-147.17;100.00;50166.84;5075736;28;51375;-63
2021/11/06 06:34:37;;;;;;;;;18.25;16.75;;;;;-147.17;100.00;50162.91;5075318;28;52039;-61
2021/11/06 06:37:02;;;;;;;;;21.25;19.00;;;;;-147.17;100.00;50151.09;5075594;28;50908;-61
2021/11/06 06:39:28;;;;;;;;;19.75;18.75;;;;;-147.17;100.00;50157.00;5074437;28;50923;-61
2021/11/06 06:41:53;;;;;;;;;19.75;18.25;;;;;-147.17;100.00;50155.03;5061910;28;51368;-62
2021/11/06 06:44:18;;;;;;;;;17.50;17.00;;;;;-147.17;100.00;50149.13;5075459;28;50971;-62
2021/11/06 06:46:44;;;;;;;;;17.00;15.25;;;;;-147.17;100.00;50143.22;5075523;28;51088;-62
2021/11/06 06:49:09;;;;;;;;;17.25;16.25;;;;;-147.17;100.00;50158.97;5075585;28;51018;-62
2021/11/06 06:51:35;;;;;;;;;17.50;16.75;;;;;-147.17;100.00;50190.47;5074882;28;50879;-62
2021/11/06 06:54:00;;;;;;;;;23.00;22.00;;;;;-147.17;100.00;50178.66;5074906;28;50965;-62
2021/11/06 06:56:25;;;;;;;;;20.25;17.00;;;;;-147.17;100.00;50147.16;5075253;28;50992;-62
2021/11/06 06:58:51;;;;;;;;;22.25;19.25;;;;;-147.17;100.00;50153.06;5075432;28;51416;-61
2021/11/06 07:01:16;;;;;;;;;21.50;19.25;;;;;-147.17;100.00;50131.41;5058112;28;50896;-61
2021/11/06 07:03:42;;;;;;;;;20.00;18.00;;;;;-147.17;100.00;50135.34;5067001;28;51144;-63
2021/11/06 07:06:07;;;;;;;;;20.50;20.50;;;;;-147.17;100.00;50166.84;5075639;28;50958;-62
2021/11/06 07:08:33;;;;;;;;;24.25;21.50;;;;;-147.17;100.00;50162.91;5075482;28;51190;-62
2021/11/06 07:10:58;;;;;;;;;18.00;17.50;;;;;-147.17;100.00;50147.16;5065468;28;51110;-62
2021/11/06 07:13:24;;;;;;;;;17.75;17.75;;;;;-147.17;100.00;50151.09;5052405;28;51907;-63
2021/11/06 07:15:50;;;;;;;;;17.00;16.00;;;;;-147.17;100.00;50170.78;5075007;28;51066;-61
2021/11/06 07:18:16;;;;;;;;;20.50;19.25;;;;;-147.17;100.00;50158.97;5074913;28;50963;-62
2021/11/06 07:20:42;;;;;;;;;18.50;16.75;;;;;-147.17;100.00;50168.81;5059840;28;51190;-61
2021/11/06 07:23:08;;;;;;;;;19.00;18.00;;;;;-147.17;100.00;50178.66;5063011;28;51814;-62
2021/11/06 07:25:34;;;;;;;;;21.75;19.75;;;;;-147.17;100.00;50174.72;5069797;28;52054;-62
2021/11/06 07:28:00;;;;;;;;;20.50;18.00;;;;;-147.17;100.00;50202.28;5050247;28;51183;-62
2021/11/06 07:30:25;;;;;;;;;19.75;19.75;;;;;-147.17;100.00;50139.28;5055931;28;51137;-63
2021/11/06 07:32:51;;;;;;;;;19.25;16.00;;;;;-147.17;100.00;50162.91;5072006;28;52541;-62
2021/11/06 07:35:16;;;;;;;;;19.50;18.00;;;;;-147.17;100.00;50198.34;5074910;28;50857;-61
2021/11/06 07:37:42;;;;;;;;;21.75;19.50;;;;;-147.17;100.00;50194.41;5074685;28;51055;-62
2021/11/06 07:40:09;;;;;;;;;18.25;16.50;;;;;-147.17;100.00;50182.59;5061152;28;51041;-61
2021/11/06 07:42:43;;;;;;;;;18.75;16.25;;;;;-147.17;100.00;50194.41;5072807;28;52761;-61
2021/11/06 07:45:11;;;;;;;;;16.75;15.75;;;;;-147.17;100.00;50194.41;5074569;28;51232;-61
2021/11/06 07:47:37;;;;;;;;;18.75;17.25;;;;;-147.17;100.00;50218.03;5074395;28;51050;-62
2021/11/06 07:50:05;;;;;;;;;17.75;16.50;;;;;-147.17;100.00;50218.03;5074477;28;51132;-62
2021/11/06 07:52:30;;;;;;;;;17.00;15.00;;;;;-147.17;100.00;50190.47;5073757;28;53540;-61
2021/11/06 07:54:56;;;;;;;;;17.25;17.00;;;;;-147.17;100.00;50214.09;5074075;28;50922;-62
2021/11/06 07:57:21;;;;;;;;;22.50;20.75;;;;;-147.17;100.00;50200.31;5074296;28;51259;-62
2021/11/06 07:59:47;;;;;;;;;27.00;24.50;;;;;-147.17;100.00;50178.66;5073857;28;51163;-61
2021/11/06 08:02:12;;;;;;;;;26.00;23.50;;;;;-147.17;100.00;50160.94;5049666;28;51914;-62
2021/11/06 08:04:38;;;;;;;;;29.00;28.25;;;;;-147.17;100.00;50160.94;5066727;28;51075;-62
2021/11/06 08:07:03;;;;;;;;;26.50;24.75;;;;;-147.17;100.00;50162.91;5073897;28;50939;-62
2021/11/06 08:09:29;;;;;;;;;24.25;24.00;;;;;-147.17;100.00;50151.09;5074150;28;50998;-61
2021/11/06 08:11:54;;;;;;;;;26.00;24.00;;;;;-147.17;100.00;50151.09;5073716;28;51865;-62
2021/11/06 08:14:19;;;;;;;;;26.75;26.75;;;;;-147.17;100.00;50147.16;5074888;28;51149;-62
2021/11/06 08:16:45;;;;;;;;;29.75;28.00;;;;;-147.17;100.00;50135.34;5074155;28;51007;-62
2021/11/06 08:19:11;;;;;;;;;22.50;20.00;;;;;-147.17;100.00;50119.59;5073129;28;51059;-62
2021/11/06 08:21:36;;;;;;;;;23.50;23.00;;;;;-147.17;100.00;50125.50;5060574;28;52418;-62
2021/11/06 08:24:02;;;;;;;;;26.25;23.50;;;;;-147.17;100.00;50153.06;5073121;28;50939;-62
2021/11/06 08:26:28;;;;;;;;;23.00;22.50;;;;;-147.17;100.00;50192.44;5073458;28;50896;-61
2021/11/06 08:28:54;;;;;;;;;20.25;20.25;;;;;-147.17;100.00;50253.47;5072941;28;51055;-63
2021/11/06 08:31:19;;;;;;;;;24.50;24.50;;;;;-147.17;100.00;50312.53;5071973;28;51971;-62
2021/11/06 08:33:45;;;;;;;;;23.25;21.75;;;;;-147.17;100.00;50312.53;5073103;28;50999;-62
2021/11/06 08:36:11;;;;;;;;;24.00;23.00;;;;;-147.17;100.00;50367.63;5073232;28;50914;-62
2021/11/06 08:38:37;;;;;;;;;21.25;18.75;;;;;-147.17;99.62;50485.75;5066137;28;51277;-63
2021/11/06 08:41:03;;;;;;;;;18.50;17.50;;;;;-147.17;97.26;50479.84;5065847;28;51276;-61
2021/11/06 08:43:29;;;;;;;;;20.00;19.00;;;;;-147.17;92.41;50613.72;5072968;28;51009;-61
2021/11/06 08:45:54;;;;;;;;;13.00;11.67;;;;;-147.17;90.21;50623.56;5072945;28;51005;-61
2021/11/06 08:48:20;;;;;;;;;11.67;11.67;;;;;-147.17;87.15;50682.63;5072382;28;51002;-62
2021/11/06 08:50:47;;;;;;;;;13.00;12.67;;;;;-147.17;84.79;50686.56;5072827;28;52030;-61
2021/11/06 08:53:12;;;;;;;;;15.00;15.00;;;;;-147.17;83.04;50737.75;5072313;28;50830;-62
2021/11/06 08:55:38;;;;;;;;;15.00;14.67;;;;;-147.17;80.74;50761.38;5073007;28;51133;-62
2021/11/06 08:58:03;;;;;;;;;13.00;13.00;;;;;-147.17;78.98;50820.44;5072720;28;51315;-62
2021/11/06 09:00:38;;;;;;;;;15.00;14.00;;;;;-147.17;78.40;50812.56;5071819;28;50942;-62
2021/11/06 09:03:12;;;;;;;;;12.00;12.00;;;;;-147.17;77.80;50814.53;5068168;28;51088;-62
2021/11/06 09:05:42;;;;;;;;;14.67;14.00;;;;;-147.17;77.24;50777.13;5072984;28;50967;-63
2021/11/06 09:08:08;;;;;;;;;15.00;14.00;;;;;-147.17;77.64;50735.78;5072567;28;51159;-63
2021/11/06 09:10:34;;;;;;;;;13.00;13.00;;;;;-147.17;77.58;50743.66;5071029;28;51711;-62
2021/11/06 09:13:00;;;;;;;;;13.33;13.00;;;;;-147.17;77.19;50722.00;5054488;28;51260;-62
2021/11/06 09:15:25;;;;;;;;;13.33;13.33;;;;;-147.17;77.83;50696.41;5071420;28;51233;-61
2021/11/06 09:17:51;;;;;;;;;13.67;13.00;;;;;-147.17;78.34;50664.91;5072689;28;51418;-62
2021/11/06 09:20:17;;;;;;;;;15.33;14.67;;;;;-147.17;78.71;50674.75;5068687;28;51895;-62
2021/11/06 09:22:43;;;;;;;;;13.33;12.00;;;;;-147.17;78.90;50635.38;5059660;28;51055;-62
2021/11/06 09:25:09;;;;;;;;;14.00;14.00;;;;;-147.17;78.92;50631.44;5063091;28;51165;-61
2021/11/06 09:27:36;;;;;;;;;13.67;13.67;;;;;-147.17;79.92;50643.25;5061978;28;51017;-62
2021/11/06 09:30:07;;;;;;;;;13.00;11.33;;;;;-147.17;80.47;50584.19;5069396;28;51396;-62
2021/11/06 09:32:33;;;;;;;;;17.25;16.00;;;;;-147.17;80.57;50611.75;5041740;28;51144;-62
2021/11/06 09:34:59;;;;;;;;;17.00;15.67;;;;;-147.17;80.98;50572.38;5045691;28;51208;-63
2021/11/06 09:37:25;;;;;;;;;14.00;13.00;;;;;-147.17;81.13;50568.44;5052232;28;50947;-60
2021/11/06 09:39:53;;;;;;;;;17.50;16.00;;;;;-147.17;81.79;50572.38;5050958;28;51363;-62
2021/11/06 09:42:18;;;;;;;;;15.00;14.25;;;;;-147.17;82.43;50523.16;5045612;28;51029;-62
2021/11/06 09:44:44;;;;;;;;;14.75;14.00;;;;;-147.17;82.33;50497.56;5042644;28;51015;-62
2021/11/06 09:47:12;;;;;;;;;12.00;11.75;;;;;-147.17;82.16;50548.75;5051761;28;51128;-61
2021/11/06 09:49:39;;;;;;;;;14.50;14.00;;;;;-147.17;82.72;50513.31;5050915;28;50978;-62
2021/11/06 09:52:06;;;;;;;;;14.50;14.00;;;;;-147.17;83.39;50499.53;5030973;28;51138;-61
2021/11/06 09:54:32;;;;;;;;;16.75;16.75;;;;;-147.17;83.92;50450.31;5050813;28;51072;-62
2021/11/06 09:56:57;;;;;;;;;15.00;15.00;;;;;-147.17;84.44;50493.63;5051512;28;51013;-62
2021/11/06 09:59:24;;;;;;;;;15.25;14.75;;;;;-147.17;84.49;50501.50;5045097;28;51298;-62
2021/11/06 10:01:49;;;;;;;;;13.00;11.50;;;;;-147.17;84.31;50495.59;5031684;28;51166;-62
2021/11/06 10:04:15;;;;;;;;;11.25;10.50;;;;;-147.17;84.69;50489.69;5045631;28;51249;-62
2021/11/06 10:06:44;;;;;;;;;13.75;13.25;;;;;-147.17;84.45;50503.47;5051718;28;50976;-64
2021/11/06 10:09:12;;;;;;;;;13.25;12.50;;;;;-147.17;85.04;50493.63;5047155;28;52496;-62
2021/11/06 10:11:42;;;;;;;;;14.00;13.00;;;;;-147.17;84.78;50444.41;5042056;28;51072;-63
2021/11/06 10:14:16;;;;;;;;;15.25;15.25;;;;;-147.17;84.53;50475.91;5051435;28;50908;-62
2021/11/06 10:16:59;;;;;;;;;13.33;12.33;;;;;-147.17;85.02;50446.38;5051571;28;51118;-62
2021/11/06 10:19:31;;;;;;;;;11.50;10.50;;;;;-147.17;85.07;50462.13;5050891;28;52447;-62
2021/11/06 10:22:13;;;;;;;;;12.25;12.00;;;;;-147.17;85.64;50430.63;5051605;28;50994;-62
2021/11/06 10:24:49;;;;;;;;;13.25;12.50;;;;;-147.17;86.83;50371.56;5051281;28;51043;-62
2021/11/06 10:27:19;;;;;;;;;12.25;12.00;;;;;-147.17;86.16;50381.41;5051520;28;51115;-63
2021/11/06 10:30:11;;;;;;;;;11.25;10.50;;;;;-147.17;84.56;50470.00;5043403;28;51003;-62
2021/11/06 10:32:39;;;;;;;;;15.50;14.50;;;;;-147.17;82.89;50487.72;5063309;28;51154;-62
2021/11/06 10:35:18;;;;;;;;;14.33;14.33;;;;;-147.17;80.38;50572.38;5071449;28;50959;-61
2021/11/06 10:37:46;;;;;;;;;17.50;16.25;;;;;-147.17;79.35;50619.63;5070970;28;50979;-62
2021/11/06 10:40:13;;;;;;;;;13.00;12.00;;;;;-147.17;78.28;50660.97;5070226;28;52438;-61
2021/11/06 10:42:53;;;;;;;;;12.00;12.00;;;;;-147.17;76.81;50710.19;5070703;28;51035;-62
2021/11/06 10:45:21;;;;;;;;;17.00;15.33;;;;;-147.17;75.91;50702.31;5070740;28;51284;-61
2021/11/06 10:48:03;;;;;;;;;13.00;13.00;;;;;-147.17;74.50;50781.06;5070798;28;50895;-62
2021/11/06 10:50:37;;;;;;;;;14.33;14.33;;;;;-147.17;73.43;50779.09;5070477;28;51081;-61